Namao — CZ9742 — position and weather

sailwx.info

Track history (hours):
 
Tides and Currents Weather Stations Pressure Air Temp Water Temp Dewpoint Dewpoint Depression Visibility Wind Speed Wind Dir Waves Ship Positions

Oceanographic research ship Namao (Canada)

Last reported at 2017-Feb-22 16:00 UTC. Time now 2017-Feb-22 17:25 UTC.
Position N 50°36' W 096°54'.

Wind from 300 at 5 knots

Barometer 1009.8 mb
Air temperature 1.7 ° C
Dewpoint -3.8 ° C

Date/timePositionNaut miles runAvg speedWind from/ knotsBaromVisibWave heightAir tempDewpointWater temp
2017-Feb-22 16:00N 50°36' W 096°54'0 0.0 300 / 51009.8 1.7-3.8
2017-Feb-22 15:00N 50°36' W 096°54'0 0.0 270 / 41010.1 0.6-1.4
2017-Feb-22 14:00N 50°36' W 096°54'0 0.0 280 / 31010.0 -0.0-0.4
2017-Feb-22 13:00N 50°36' W 096°54'0 0.0 270 / 31009.4 -0.2-0.3
2017-Feb-22 12:00N 50°36' W 096°54'0 0.0 270 / 21009.1 -0.2-0.4
2017-Feb-22 11:00N 50°36' W 096°54'0 0.0 320 / 31008.8 -0.0-0.4
2017-Feb-22 10:00N 50°36' W 096°54'0 0.0 360 / 71008.6 -0.1-0.2
2017-Feb-22 09:00N 50°36' W 096°54'0 0.0 350 / 71008.1 -0.0-0.1
2017-Feb-22 08:00N 50°36' W 096°54'0 0.0 340 / 61008.3 -0.0-0.1
2017-Feb-22 07:00N 50°36' W 096°54'0 0.0 360 / 71008.1 -0.0-0.0
2017-Feb-22 06:00N 50°36' W 096°54'0 0.0 010 / 91007.1 -0.1-0.0
2017-Feb-22 05:00N 50°36' W 096°54'0 0.0 010 / 91007.3 0.1 0.2
2017-Feb-22 04:00N 50°36' W 096°54'0 0.0 350 / 71006.9 1.2 1.2
2017-Feb-22 03:00N 50°36' W 096°54'0 0.0 260 / 31007.0 1.5 1.5
2017-Feb-22 02:00N 50°36' W 096°54'0 0.0 220 / 31006.8 1.5 1.5
2017-Feb-22 01:00N 50°36' W 096°54'0 0.0 200 / 61006.7 1.5 1.4
2017-Feb-22 00:00N 50°36' W 096°54'0 0.0 200 / 61006.1 1.8 1.7
2017-Feb-21 23:00N 50°36' W 096°54'0 0.0 170 / 51005.6 1.7 1.6
2017-Feb-21 22:00N 50°36' W 096°54'0 0.0 130 / 41005.7 3.4-0.4
2017-Feb-21 21:00N 50°36' W 096°54'0 0.0 090 / 31005.6 4.3 0.4
2017-Feb-21 20:00N 50°36' W 096°54'0 0.0 290 / 31005.9 4.2-1.3
2017-Feb-21 19:00N 50°36' W 096°54'0 0.0 250 / 31006.4 3.8-0.6
2017-Feb-21 18:00N 50°36' W 096°54'0 0.0 230 / 31006.5 3.3 1.4
2017-Feb-21 17:00N 50°36' W 096°54'0 0.0 220 / 41006.6 2.2 2.1
2017-Feb-21 16:00N 50°36' W 096°54'0 0.0 230 / 51006.7 1.4 1.4
2017-Feb-21 15:00N 50°36' W 096°54'0 0.0 230 / 51006.7 1.1 1.1
2017-Feb-21 14:00N 50°36' W 096°54'0 0.0 230 / 61006.5 1.1 1.1
2017-Feb-21 13:00N 50°36' W 096°54'0 0.0 220 / 61006.4 1.2 1.2
2017-Feb-21 12:00N 50°36' W 096°54'0 0.0 230 / 61006.1 1.8 1.7
2017-Feb-21 11:00N 50°36' W 096°54'0 0.0 230 / 61005.9 1.7 1.7
2017-Feb-21 10:00N 50°36' W 096°54'0 0.0 230 / 61005.7 1.4 1.4
2017-Feb-21 09:00N 50°36' W 096°54'0 0.0 220 / 71005.3 1.2 1.3
2017-Feb-21 08:00N 50°36' W 096°54'0 0.0 230 / 51004.8 1.4 1.4
2017-Feb-21 07:00N 50°36' W 096°54'0 0.0 250 / 61004.8 1.9 1.9
2017-Feb-21 06:00N 50°36' W 096°54'0 0.0 240 / 71004.5 2.0 1.9
2017-Feb-21 05:00N 50°36' W 096°54'0 0.0 240 / 71004.0 0.6 0.7
2017-Feb-21 04:00N 50°36' W 096°54'0 0.0 250 / 51003.3 0.3 0.3
2017-Feb-21 03:00N 50°36' W 096°54'0 0.0 260 / 61003.1 0.5 0.5
2017-Feb-21 02:00N 50°36' W 096°54'0 0.0 270 / 61003.2 1.0 1.0
2017-Feb-21 01:00N 50°36' W 096°54'0 0.0 270 / 71002.9 0.8 1.0
2017-Feb-21 00:00N 50°36' W 096°54'0 0.0 260 / 71002.2 0.9 1.1
2017-Feb-20 23:00N 50°36' W 096°54'0 0.0 300 / 61001.7 1.1 1.4
2017-Feb-20 22:00N 50°36' W 096°54'0 0.0 270 / 61001.8 1.2 1.6
2017-Feb-20 21:00N 50°36' W 096°54'0 0.0 260 / 51001.3 1.4 2.0
2017-Feb-20 20:00N 50°36' W 096°54'0 0.0 260 / 71001.7 1.3 1.9
2017-Feb-20 19:00N 50°36' W 096°54'0 0.0 250 / 51002.4 1.5 2.2
2017-Feb-20 18:00N 50°36' W 096°54'0 0.0 190 / 51002.5 1.5 2.1
2017-Feb-20 17:00N 50°36' W 096°54'0 0.0 130 / 71002.3 1.6 2.1
2017-Feb-20 16:00N 50°36' W 096°54'0 0.0 180 / 31002.6 2.0 2.4
2017-Feb-20 15:00N 50°36' W 096°54'0 0.0 190 / 71003.2 3.3 3.3
2017-Feb-20 14:00N 50°36' W 096°54'0 0.0 170 / 71002.7 2.3 2.3
2017-Feb-20 13:00N 50°36' W 096°54'0 0.0 160 / 71002.3 1.3 1.4
2017-Feb-20 12:00N 50°36' W 096°54'0 0.0 160 / 71002.7 1.6 1.6
2017-Feb-20 11:00N 50°36' W 096°54'0 0.0 160 / 61002.8 1.9 1.9
2017-Feb-20 10:00N 50°36' W 096°54'0 0.0 140 / 101002.7 2.9 2.8
2017-Feb-20 09:00N 50°36' W 096°54'0 0.0 140 / 81003.1 2.4 2.3
2017-Feb-20 08:00N 50°36' W 096°54'0 0.0 130 / 71003.8 2.9 2.8
2017-Feb-20 07:00N 50°36' W 096°54'0 0.0 120 / 111004.3 3.0 2.7
2017-Feb-20 06:00N 50°36' W 096°54'0 0.0 110 / 131004.8 3.2 2.5
2017-Feb-20 05:00N 50°36' W 096°54'0 0.0 110 / 111005.9 3.0 2.6
2017-Feb-20 04:00N 50°36' W 096°54'0 0.0 100 / 81006.4 2.3 2.2
2017-Feb-20 03:00N 50°36' W 096°54'0 0.0 090 / 71006.9 2.1 2.0
2017-Feb-20 02:00N 50°36' W 096°54'0 0.0 080 / 81008.0 2.1 2.0
2017-Feb-20 01:00N 50°36' W 096°54'0 0.0 080 / 101008.1 2.0 1.9
2017-Feb-20 00:00N 50°36' W 096°54'0 0.0 050 / 71008.4 1.3 1.4
2017-Feb-19 23:00N 50°36' W 096°54'0 0.0 040 / 91009.0 1.0 1.0
2017-Feb-19 22:00N 50°36' W 096°54'0 0.0 050 / 111009.8 2.0 2.0
2017-Feb-19 21:00N 50°36' W 096°54'0 0.0 050 / 111010.5 1.1 1.2
2017-Feb-19 20:00N 50°36' W 096°54'0 0.0 050 / 131011.2 0.6 0.6
2017-Feb-19 19:00N 50°36' W 096°54'0 0.0 050 / 131012.2 0.2 0.2
2017-Feb-19 18:00N 50°36' W 096°54'0 0.0 060 / 131013.3 0.4 0.4
2017-Feb-19 17:00N 50°36' W 096°54'0 0.0 060 / 91014.0 -0.5-0.5
2017-Feb-19 16:00N 50°36' W 096°54'0 0.0 060 / 71014.7 -2.4-2.2
2017-Feb-19 15:00N 50°36' W 096°54'0 0.0 030 / 51014.5 -3.4-3.2
2017-Feb-19 14:00N 50°36' W 096°54'0 0.0 030 / 41014.8 -4.3-4.1
2017-Feb-19 13:00N 50°36' W 096°54'0 0.0 020 / 61014.1 -4.1-3.9
2017-Feb-19 12:00N 50°36' W 096°54'0 0.0 030 / 21014.1 -4.3-4.1
2017-Feb-19 11:00N 50°36' W 096°54'0 0.0 020 / 21013.8 -3.9-3.7
2017-Feb-19 10:00N 50°36' W 096°54'0 0.0 020 / 21013.7 -2.7-2.5
2017-Feb-19 09:00N 50°36' W 096°54'0 0.0 020 / 41013.2 -2.0-1.9
2017-Feb-19 08:00N 50°36' W 096°54'0 0.0 360 / 41013.2 -2.4-2.2
2017-Feb-19 07:00N 50°36' W 096°54'0 0.0 1013.2 -2.2-2.1
2017-Feb-19 06:00N 50°36' W 096°54'0 0.0 340 / 31012.2 -1.8-1.7
2017-Feb-19 05:00N 50°36' W 096°54'0 0.0 050 / 21011.6 -0.9-0.8
2017-Feb-19 04:00N 50°36' W 096°54'0 0.0 010 / 31010.6 -1.3-1.2
2017-Feb-19 03:00N 50°36' W 096°54'0 0.0 030 / 21009.8 -0.9-0.8
2017-Feb-19 02:00N 50°36' W 096°54'0 0.0 020 / 41009.6 0.2 0.2
2017-Feb-19 01:00N 50°36' W 096°54'0 0.0 040 / 81008.5 1.1 1.0
2017-Feb-19 00:00N 50°36' W 096°54'0 0.0 270 / 31007.2 4.3-1.8
2017-Feb-18 23:00N 50°36' W 096°54'0 0.0 280 / 51006.3 5.5-1.7
2017-Feb-18 22:00N 50°36' W 096°54'0 0.0 280 / 61005.2 6.6-1.6
2017-Feb-18 21:00N 50°36' W 096°54'0 0.0 290 / 101004.4 6.4-1.8
2017-Feb-18 20:00N 50°36' W 096°54'0 0.0 280 / 81003.8 6.6-1.6
2017-Feb-18 19:00N 50°36' W 096°54'0 0.0 270 / 81003.4 6.4-1.4
2017-Feb-18 18:00N 50°36' W 096°54'0 0.0 270 / 101002.8 6.4-1.9
2017-Feb-18 17:00N 50°36' W 096°54'0 0.0 270 / 91002.3 6.1-0.9
2017-Feb-18 16:00N 50°36' W 096°54'0 0.0 260 / 81001.1 5.5 0.4
2017-Feb-18 15:00N 50°36' W 096°54'0 0.0 270 / 91000.6 4.3 1.3
2017-Feb-18 14:00N 50°36' W 096°54'0 0.0 260 / 101000.2 3.5 2.1
2017-Feb-18 13:00N 50°36' W 096°54'0 0.0 260 / 9999.8 3.0 2.0
2017-Feb-18 12:00N 50°36' W 096°54'0 0.0 260 / 8999.2 2.6 2.1
2017-Feb-18 11:00N 50°36' W 096°54'0 0.0 250 / 6998.5 2.0 1.9
2017-Feb-18 10:00N 50°36' W 096°54'0 0.0 220 / 6997.6 2.5 1.8
2017-Feb-18 09:00N 50°36' W 096°54'0 0.0 240 / 7997.0 2.7 1.8
2017-Feb-18 08:00N 50°36' W 096°54'0 0.0 230 / 8996.2 3.1 1.8
2017-Feb-18 07:00N 50°36' W 096°54'0 0.0 250 / 10994.8 4.1 2.2
2017-Feb-18 06:00N 50°36' W 096°54'0 0.0 240 / 10993.9 4.0 2.0
2017-Feb-18 05:00N 50°36' W 096°54'0 0.0 250 / 9993.1 4.4 1.9
2017-Feb-18 04:00N 50°36' W 096°54'0 0.0 240 / 7992.4 3.9 2.2
2017-Feb-18 03:00N 50°36' W 096°54'0 0.0 230 / 9992.0 3.6 2.1
2017-Feb-18 02:00N 50°36' W 096°54'0 0.0 240 / 9991.6 3.8 1.7
2017-Feb-18 01:00N 50°36' W 096°54'0 0.0 250 / 9990.8 4.6 1.4
2017-Feb-18 00:00N 50°36' W 096°54'0 0.0 230 / 6990.2 5.1 1.2
2017-Feb-17 23:00N 50°36' W 096°54'0 0.0 200 / 5989.6 5.1 1.2
2017-Feb-17 22:00N 50°36' W 096°54'0 0.0 190 / 8989.1 5.0 0.8
2017-Feb-17 21:00N 50°36' W 096°54'0 0.0 180 / 9988.9 4.2 0.4
2017-Feb-17 20:00N 50°36' W 096°54'0 0.0 210 / 8988.8 7.4 0.4
2017-Feb-17 19:00N 50°36' W 096°54'0 0.0 200 / 11989.4 5.2 0.1
2017-Feb-17 18:00N 50°36' W 096°54'0 0.0 180 / 14989.8 5.2-0.0
2017-Feb-17 17:00N 50°36' W 096°54'0 0.0 180 / 8990.7 3.4-0.1
2017-Feb-17 16:00N 50°36' W 096°54'0 0.0 190 / 8991.0 1.7-0.6
2017-Feb-17 15:00N 50°36' W 096°54'0 0.0 190 / 6990.8 0.9-0.3
2017-Feb-17 14:00N 50°36' W 096°54'0 0.0 180 / 9991.3 -0.9-1.1
2017-Feb-17 13:00N 50°36' W 096°54'0 0.0 180 / 9991.4 -1.7-1.8
2017-Feb-17 12:00N 50°36' W 096°54'0 0.0 190 / 7991.8 -2.3-2.3
2017-Feb-17 11:00N 50°36' W 096°54'0 0.0 190 / 10992.1 -2.1-2.1
2017-Feb-17 10:00N 50°36' W 096°54'0 0.0 160 / 9992.5 -4.6-4.4
2017-Feb-17 09:00N 50°36' W 096°54'0 0.0 170 / 8992.7 -4.7-4.5
2017-Feb-17 08:00N 50°36' W 096°54'0 0.0 150 / 7993.1 -4.5-4.4
2017-Feb-17 07:00N 50°36' W 096°54'0 0.0 160 / 8992.9 -3.4-3.4
2017-Feb-17 06:00N 50°36' W 096°54'0 0.0 180 / 7993.7 -0.2-0.2
2017-Feb-17 05:00N 50°36' W 096°54'0 0.0 180 / 5994.0 -0.4-0.4
2017-Feb-17 04:00N 50°36' W 096°54'0 0.0 170 / 7994.2 -1.4-1.3
2017-Feb-17 03:00N 50°36' W 096°54'0 0.0 160 / 6995.0 -0.0-0.0
2017-Feb-17 02:00N 50°36' W 096°54'0 0.0 170 / 6995.3 0.1 0.1
2017-Feb-17 01:00N 50°36' W 096°54'0 0.0 170 / 6995.6 0.1 0.1
2017-Feb-17 00:00N 50°36' W 096°54'0 0.0 160 / 10995.9 -0.9-0.9
2017-Feb-16 23:00N 50°36' W 096°54'0 0.0 170 / 8995.8 0.4 0.3
2017-Feb-16 22:00N 50°36' W 096°54'0 0.0 170 / 6996.0 0.7 0.6
2017-Feb-16 21:00N 50°36' W 096°54'0 0.0 160 / 10996.2 1.1 0.9
2017-Feb-16 20:00N 50°36' W 096°54'0 0.0 140 / 9995.8 1.0 0.9
2017-Feb-16 19:00N 50°36' W 096°54'0 0.0 150 / 11995.9 -0.1-0.2
2017-Feb-16 18:00N 50°36' W 096°54'0 0.0 150 / 10997.0 -1.9-2.2
2017-Feb-16 17:00N 50°36' W 096°54'0 0.0 130 / 11997.5 -2.9-3.4
2017-Feb-16 16:00N 50°36' W 096°54'0 0.0 150 / 11997.3 -4.2-5.1
2017-Feb-16 15:00N 50°36' W 096°54'0 0.0 150 / 12997.5 -5.7-7.3
2017-Feb-16 14:00N 50°36' W 096°54'0 0.0 150 / 8999.1 -7.4-9.1
2017-Feb-16 13:00N 50°36' W 096°54'0 0.0 150 / 16999.0 -6.8-9.3
2017-Feb-16 12:00N 50°36' W 096°54'0 0.0 120 / 16999.9 -6.2-8.7
2017-Feb-16 11:00N 50°36' W 096°54'0 0.0 160 / 81000.7 -6.7-9.2
2017-Feb-16 09:00N 50°36' W 096°54'0 0.0 140 / 161001.5 -6.6-10.3
2017-Feb-16 08:00N 50°36' W 096°54'0 0.0 140 / 141003.3 -6.6-10.3
2017-Feb-16 07:00N 50°36' W 096°54'0 0.0 140 / 141004.3 -6.6-10.6
2017-Feb-16 06:00N 50°36' W 096°54'0 0.0 130 / 151004.9 -5.9-10.0
2017-Feb-16 05:00N 50°36' W 096°54'0 0.0 140 / 81006.0 -6.4-10.8
2017-Feb-16 04:00N 50°36' W 096°54'0 0.0 130 / 111006.3 -6.5-10.3
2017-Feb-16 03:00N 50°36' W 096°54'0 0.0 120 / 121007.7 -6.3-10.2
2017-Feb-16 02:00N 50°36' W 096°54'0 0.0 120 / 111007.9 -6.7-10.7
2017-Feb-16 01:00N 50°36' W 096°54'0 0.0 120 / 101008.0 -5.5-9.4
2017-Feb-16 00:00N 50°36' W 096°54'0 0.0 150 / 71008.3 -5.6-9.9
2017-Feb-15 23:00N 50°36' W 096°54'0 0.0 150 / 101007.9 -4.5-9.3
2017-Feb-15 22:00N 50°36' W 096°54'0 0.0 150 / 91009.0 -3.9-9.2
2017-Feb-15 21:00N 50°36' W 096°54'0 0.0 130 / 121009.6 -3.2-9.5
2017-Feb-15 20:00N 50°36' W 096°54'0 0.0 140 / 141010.7 -5.1-11.4
2017-Feb-15 19:00N 50°36' W 096°54'0 0.0 130 / 131012.0 -6.3-11.9
2017-Feb-15 18:00N 50°36' W 096°54'0 0.0 120 / 141012.7 -8.5-12.9
2017-Feb-15 17:00N 50°36' W 096°54'0 0.0 150 / 161013.5 -10.8-14.9
2017-Feb-15 16:00N 50°36' W 096°54'0 0.0 130 / 161014.7 -11.8-15.3
2017-Feb-15 15:00N 50°36' W 096°54'0 0.0 130 / 91015.9 -13.1-16.4
2017-Feb-15 14:00N 50°36' W 096°54'0 0.0 170 / 121016.2 -14.7-17.5
2017-Feb-15 13:00N 50°36' W 096°54'0 0.0 140 / 91017.3 -14.6-17.4
2017-Feb-15 12:00N 50°36' W 096°54'0 0.0 120 / 91018.2 -14.2-16.7
2017-Feb-15 11:00N 50°36' W 096°54'0 0.0 140 / 71018.7 -14.0-16.8
2017-Feb-15 10:00N 50°36' W 096°54'0 0.0 180 / 51020.0 -14.0-16.8
2017-Feb-15 09:00N 50°36' W 096°54'0 0.0 180 / 41020.1 -15.0-17.6
2017-Feb-15 08:00N 50°36' W 096°54'0 0.0 170 / 41020.3 -14.4-17.5
2017-Feb-15 07:00N 50°36' W 096°54'0 0.0 130 / 31021.2 -13.0-16.6
2017-Feb-15 06:00N 50°36' W 096°54'0 0.0 040 / 21022.3 -12.4-17.1
2017-Feb-15 05:00N 50°36' W 096°54'0 0.0 020 / 11022.7 -12.3-17.2
2017-Feb-15 04:00N 50°36' W 096°54'0 0.0 330 / 31023.1 -12.3-17.5
2017-Feb-15 03:00N 50°36' W 096°54'0 0.0 300 / 41023.4 -12.1-17.2
2017-Feb-15 02:00N 50°36' W 096°54'0 0.0 280 / 31022.5 -11.3-16.9
2017-Feb-15 01:00N 50°36' W 096°54'0 0.0 340 / 61022.0 -10.4-16.6
2017-Feb-15 00:00N 50°36' W 096°54'0 0.0 320 / 61022.1 -9.5-16.3
2017-Feb-14 23:00N 50°36' W 096°54'0 0.0 320 / 91021.8 -7.3-15.2
2017-Feb-14 22:00N 50°36' W 096°54'0 0.0 340 / 91020.8 -6.8-14.4
2017-Feb-14 21:00N 50°36' W 096°54'0 0.0 330 / 101020.5 -6.3-14.2
2017-Feb-14 20:00N 50°36' W 096°54'0 0.0 340 / 121020.4 -6.6-14.1
2017-Feb-14 19:00N 50°36' W 096°54'0 0.0 330 / 161019.4 -7.1-14.0
2017-Feb-14 18:00N 50°36' W 096°54'0 0.0 340 / 161018.5 -7.0-13.3
2017-Feb-14 17:00N 50°36' W 096°54'0 0.0 350 / 201017.4 -7.0-12.0
2017-Feb-14 16:00N 50°36' W 096°54'0 0.0 340 / 171016.7 -5.9-12.4
2017-Feb-14 15:00N 50°36' W 096°54'0 0.0 330 / 141015.2 -5.3-13.8
2017-Feb-14 14:00N 50°36' W 096°54'0 0.0 340 / 171014.0 -5.1-14.4
2017-Feb-14 13:00N 50°36' W 096°54'0 0.0 320 / 141012.0 -2.4-14.5
2017-Feb-14 12:00N 50°36' W 096°54'0 0.0 320 / 161010.8 -1.0-14.1
2017-Feb-14 11:00N 50°36' W 096°54'0 0.0 300 / 81010.7 -0.6-6.9
2017-Feb-14 10:00N 50°36' W 096°54'0 0.0 300 / 121010.0 1.0-7.5
2017-Feb-14 09:00N 50°36' W 096°54'0 0.0 280 / 81010.1 -0.0-4.6
2017-Feb-14 08:00N 50°36' W 096°54'0 0.0 290 / 101009.7 1.6-4.8
2017-Feb-14 07:00N 50°36' W 096°54'0 0.0 270 / 81009.6 1.7-3.9
2017-Feb-14 06:00N 50°36' W 096°54'0 0.0 280 / 81009.0 1.9-3.7
2017-Feb-14 05:00N 50°36' W 096°54'0 0.0 290 / 101008.8 2.8-3.2
2017-Feb-14 04:00N 50°36' W 096°54'0 0.0 290 / 91008.8 3.1-3.0
2017-Feb-14 03:00N 50°36' W 096°54'0 0.0 270 / 71008.7 3.0-2.9
2017-Feb-14 02:00N 50°36' W 096°54'0 0.0 260 / 71008.7 3.2-2.9
2017-Feb-14 01:00N 50°36' W 096°54'0 0.0 270 / 71008.5 3.9-2.7
2017-Feb-14 00:00N 50°36' W 096°54'0 0.0 250 / 61008.1 4.3-2.8
2017-Feb-13 23:00N 50°36' W 096°54'0 0.0 280 / 91007.9 5.0-3.1
2017-Feb-13 22:00N 50°36' W 096°54'0 0.0 270 / 71007.7 4.8-3.8
2017-Feb-13 21:00N 50°36' W 096°54'0 0.0 270 / 101007.4 4.9-4.9
2017-Feb-13 20:00N 50°36' W 096°54'0 0.0 280 / 81007.3 4.3-5.1
2017-Feb-13 19:00N 50°36' W 096°54'0 0.0 280 / 81007.6 4.1-5.4
2017-Feb-13 18:00N 50°36' W 096°54'0 0.0 270 / 61008.2 1.4-5.6
2017-Feb-13 17:00N 50°36' W 096°54'0 0.0 260 / 71007.8 0.5-6.0
2017-Feb-13 16:00N 50°36' W 096°54'0 0.0 230 / 101008.2 -1.9-6.5
2017-Feb-13 15:00N 50°36' W 096°54'0 0.0 230 / 101008.3 -2.8-6.8
2017-Feb-13 14:00N 50°36' W 096°54'0 0.0 230 / 101009.2 -4.2-6.7
2017-Feb-13 13:00N 50°36' W 096°54'0 0.0 230 / 91009.2 -3.9-6.2
2017-Feb-13 12:00N 50°36' W 096°54'0 0.0 230 / 91010.0 -4.2-5.7
2017-Feb-13 11:00N 50°36' W 096°54'0 0.0 210 / 111010.3 -5.2-6.1
2017-Feb-13 10:00N 50°36' W 096°54'0 0.0 210 / 101010.7 -6.4-7.0
2017-Feb-13 09:00N 50°36' W 096°54'0 0.0 190 / 101012.1 -7.3-8.0
2017-Feb-13 08:00N 50°36' W 096°54'0 0.0 200 / 71013.0 -7.1-8.3
2017-Feb-13 07:00N 50°36' W 096°54'0 0.0 190 / 121013.8 -6.9-8.8
2017-Feb-13 06:00N 50°36' W 096°54'0 0.0 180 / 111014.8 -5.6-8.6
2017-Feb-13 05:00N 50°36' W 096°54'0 0.0 210 / 101015.8 -3.3-8.2
2017-Feb-13 04:00N 50°36' W 096°54'0 0.0 220 / 111016.3 -2.8-8.8
2017-Feb-13 03:00N 50°36' W 096°54'0 0.0 210 / 101016.9 -2.3-8.8
2017-Feb-13 02:00N 50°36' W 096°54'0 0.0 230 / 91017.5 -1.7-8.6
2017-Feb-13 01:00N 50°36' W 096°54'0 0.0 230 / 101018.1 -1.7-8.8
2017-Feb-13 00:00N 50°36' W 096°54'0 0.0 230 / 101018.7 -1.5-8.2
2017-Feb-12 23:00N 50°36' W 096°54'0 0.0 230 / 101018.9 -0.0-8.1
2017-Feb-12 22:00N 50°36' W 096°54'0 0.0 220 / 91019.4 0.4-8.1
2017-Feb-12 21:00N 50°36' W 096°54'0 0.0 230 / 111019.8 1.0-9.1
2017-Feb-12 20:00N 50°36' W 096°54'0 0.0 220 / 91020.0 -0.5-9.4
2017-Feb-12 19:00N 50°36' W 096°54'0 0.0 230 / 91020.6 -0.9-9.8
2017-Feb-12 18:00N 50°36' W 096°54'0 0.0 240 / 71020.8 -1.9-10.2
2017-Feb-12 17:00N 50°36' W 096°54'0 0.0 250 / 91020.7 -3.8-10.7
2017-Feb-12 16:00N 50°36' W 096°54'   250 / 91020.6 -6.2-11.4
Track history (hours):
 
Tides and Currents Weather Stations Pressure Air Temp Water Temp Dewpoint Dewpoint Depression Visibility Wind Speed Wind Dir Waves Ship Positions

Oceanographic research ship Namao (Canada)

Last reported at 2017-Feb-22 16:00 UTC. Time now 2017-Feb-22 17:25 UTC.
Position N 50°36' W 096°54'.

Wind from 300 at 5 knots

Barometer 1009.8 mb
Air temperature 1.7 ° C
Dewpoint -3.8 ° C

Date/timePositionNaut miles runAvg speedWind from/ knotsBaromVisibWave heightAir tempDewpointWater temp
2017-Feb-22 16:00N 50°36' W 096°54'0 0.0 300 / 51009.8 1.7-3.8
2017-Feb-22 15:00N 50°36' W 096°54'0 0.0 270 / 41010.1 0.6-1.4
2017-Feb-22 14:00N 50°36' W 096°54'0 0.0 280 / 31010.0 -0.0-0.4
2017-Feb-22 13:00N 50°36' W 096°54'0 0.0 270 / 31009.4 -0.2-0.3
2017-Feb-22 12:00N 50°36' W 096°54'0 0.0 270 / 21009.1 -0.2-0.4
2017-Feb-22 11:00N 50°36' W 096°54'0 0.0 320 / 31008.8 -0.0-0.4
2017-Feb-22 10:00N 50°36' W 096°54'0 0.0 360 / 71008.6 -0.1-0.2
2017-Feb-22 09:00N 50°36' W 096°54'0 0.0 350 / 71008.1 -0.0-0.1
2017-Feb-22 08:00N 50°36' W 096°54'0 0.0 340 / 61008.3 -0.0-0.1
2017-Feb-22 07:00N 50°36' W 096°54'0 0.0 360 / 71008.1 -0.0-0.0
2017-Feb-22 06:00N 50°36' W 096°54'0 0.0 010 / 91007.1 -0.1-0.0
2017-Feb-22 05:00N 50°36' W 096°54'0 0.0 010 / 91007.3 0.1 0.2
2017-Feb-22 04:00N 50°36' W 096°54'0 0.0 350 / 71006.9 1.2 1.2
2017-Feb-22 03:00N 50°36' W 096°54'0 0.0 260 / 31007.0 1.5 1.5
2017-Feb-22 02:00N 50°36' W 096°54'0 0.0 220 / 31006.8 1.5 1.5
2017-Feb-22 01:00N 50°36' W 096°54'0 0.0 200 / 61006.7 1.5 1.4
2017-Feb-22 00:00N 50°36' W 096°54'0 0.0 200 / 61006.1 1.8 1.7
2017-Feb-21 23:00N 50°36' W 096°54'0 0.0 170 / 51005.6 1.7 1.6
2017-Feb-21 22:00N 50°36' W 096°54'0 0.0 130 / 41005.7 3.4-0.4
2017-Feb-21 21:00N 50°36' W 096°54'0 0.0 090 / 31005.6 4.3 0.4
2017-Feb-21 20:00N 50°36' W 096°54'0 0.0 290 / 31005.9 4.2-1.3
2017-Feb-21 19:00N 50°36' W 096°54'0 0.0 250 / 31006.4 3.8-0.6
2017-Feb-21 18:00N 50°36' W 096°54'0 0.0 230 / 31006.5 3.3 1.4
2017-Feb-21 17:00N 50°36' W 096°54'0 0.0 220 / 41006.6 2.2 2.1
2017-Feb-21 16:00N 50°36' W 096°54'0 0.0 230 / 51006.7 1.4 1.4
2017-Feb-21 15:00N 50°36' W 096°54'0 0.0 230 / 51006.7 1.1 1.1
2017-Feb-21 14:00N 50°36' W 096°54'0 0.0 230 / 61006.5 1.1 1.1
2017-Feb-21 13:00N 50°36' W 096°54'0 0.0 220 / 61006.4 1.2 1.2
2017-Feb-21 12:00N 50°36' W 096°54'0 0.0 230 / 61006.1 1.8 1.7
2017-Feb-21 11:00N 50°36' W 096°54'0 0.0 230 / 61005.9 1.7 1.7
2017-Feb-21 10:00N 50°36' W 096°54'0 0.0 230 / 61005.7 1.4 1.4
2017-Feb-21 09:00N 50°36' W 096°54'0 0.0 220 / 71005.3 1.2 1.3
2017-Feb-21 08:00N 50°36' W 096°54'0 0.0 230 / 51004.8 1.4 1.4
2017-Feb-21 07:00N 50°36' W 096°54'0 0.0 250 / 61004.8 1.9 1.9
2017-Feb-21 06:00N 50°36' W 096°54'0 0.0 240 / 71004.5 2.0 1.9
2017-Feb-21 05:00N 50°36' W 096°54'0 0.0 240 / 71004.0 0.6 0.7
2017-Feb-21 04:00N 50°36' W 096°54'0 0.0 250 / 51003.3 0.3 0.3
2017-Feb-21 03:00N 50°36' W 096°54'0 0.0 260 / 61003.1 0.5 0.5
2017-Feb-21 02:00N 50°36' W 096°54'0 0.0 270 / 61003.2 1.0 1.0
2017-Feb-21 01:00N 50°36' W 096°54'0 0.0 270 / 71002.9 0.8 1.0
2017-Feb-21 00:00N 50°36' W 096°54'0 0.0 260 / 71002.2 0.9 1.1
2017-Feb-20 23:00N 50°36' W 096°54'0 0.0 300 / 61001.7 1.1 1.4
2017-Feb-20 22:00N 50°36' W 096°54'0 0.0 270 / 61001.8 1.2 1.6
2017-Feb-20 21:00N 50°36' W 096°54'0 0.0 260 / 51001.3 1.4 2.0
2017-Feb-20 20:00N 50°36' W 096°54'0 0.0 260 / 71001.7 1.3 1.9
2017-Feb-20 19:00N 50°36' W 096°54'0 0.0 250 / 51002.4 1.5 2.2
2017-Feb-20 18:00N 50°36' W 096°54'0 0.0 190 / 51002.5 1.5 2.1
2017-Feb-20 17:00N 50°36' W 096°54'0 0.0 130 / 71002.3 1.6 2.1
2017-Feb-20 16:00N 50°36' W 096°54'0 0.0 180 / 31002.6 2.0 2.4
2017-Feb-20 15:00N 50°36' W 096°54'0 0.0 190 / 71003.2 3.3 3.3
2017-Feb-20 14:00N 50°36' W 096°54'0 0.0 170 / 71002.7 2.3 2.3
2017-Feb-20 13:00N 50°36' W 096°54'0 0.0 160 / 71002.3 1.3 1.4
2017-Feb-20 12:00N 50°36' W 096°54'0 0.0 160 / 71002.7 1.6 1.6
2017-Feb-20 11:00N 50°36' W 096°54'0 0.0 160 / 61002.8 1.9 1.9
2017-Feb-20 10:00N 50°36' W 096°54'0 0.0 140 / 101002.7 2.9 2.8
2017-Feb-20 09:00N 50°36' W 096°54'0 0.0 140 / 81003.1 2.4 2.3
2017-Feb-20 08:00N 50°36' W 096°54'0 0.0 130 / 71003.8 2.9 2.8
2017-Feb-20 07:00N 50°36' W 096°54'0 0.0 120 / 111004.3 3.0 2.7
2017-Feb-20 06:00N 50°36' W 096°54'0 0.0 110 / 131004.8 3.2 2.5
2017-Feb-20 05:00N 50°36' W 096°54'0 0.0 110 / 111005.9 3.0 2.6
2017-Feb-20 04:00N 50°36' W 096°54'0 0.0 100 / 81006.4 2.3 2.2
2017-Feb-20 03:00N 50°36' W 096°54'0 0.0 090 / 71006.9 2.1 2.0
2017-Feb-20 02:00N 50°36' W 096°54'0 0.0 080 / 81008.0 2.1 2.0
2017-Feb-20 01:00N 50°36' W 096°54'0 0.0 080 / 101008.1 2.0 1.9
2017-Feb-20 00:00N 50°36' W 096°54'0 0.0 050 / 71008.4 1.3 1.4
2017-Feb-19 23:00N 50°36' W 096°54'0 0.0 040 / 91009.0 1.0 1.0
2017-Feb-19 22:00N 50°36' W 096°54'0 0.0 050 / 111009.8 2.0 2.0
2017-Feb-19 21:00N 50°36' W 096°54'0 0.0 050 / 111010.5 1.1 1.2
2017-Feb-19 20:00N 50°36' W 096°54'0 0.0 050 / 131011.2 0.6 0.6
2017-Feb-19 19:00N 50°36' W 096°54'0 0.0 050 / 131012.2 0.2 0.2
2017-Feb-19 18:00N 50°36' W 096°54'0 0.0 060 / 131013.3 0.4 0.4
2017-Feb-19 17:00N 50°36' W 096°54'0 0.0 060 / 91014.0 -0.5-0.5
2017-Feb-19 16:00N 50°36' W 096°54'0 0.0 060 / 71014.7 -2.4-2.2
2017-Feb-19 15:00N 50°36' W 096°54'0 0.0 030 / 51014.5 -3.4-3.2
2017-Feb-19 14:00N 50°36' W 096°54'0 0.0 030 / 41014.8 -4.3-4.1
2017-Feb-19 13:00N 50°36' W 096°54'0 0.0 020 / 61014.1 -4.1-3.9
2017-Feb-19 12:00N 50°36' W 096°54'0 0.0 030 / 21014.1 -4.3-4.1
2017-Feb-19 11:00N 50°36' W 096°54'0 0.0 020 / 21013.8 -3.9-3.7
2017-Feb-19 10:00N 50°36' W 096°54'0 0.0 020 / 21013.7 -2.7-2.5
2017-Feb-19 09:00N 50°36' W 096°54'0 0.0 020 / 41013.2 -2.0-1.9
2017-Feb-19 08:00N 50°36' W 096°54'0 0.0 360 / 41013.2 -2.4-2.2
2017-Feb-19 07:00N 50°36' W 096°54'0 0.0 1013.2 -2.2-2.1
2017-Feb-19 06:00N 50°36' W 096°54'0 0.0 340 / 31012.2 -1.8-1.7
2017-Feb-19 05:00N 50°36' W 096°54'0 0.0 050 / 21011.6 -0.9-0.8
2017-Feb-19 04:00N 50°36' W 096°54'0 0.0 010 / 31010.6 -1.3-1.2
2017-Feb-19 03:00N 50°36' W 096°54'0 0.0 030 / 21009.8 -0.9-0.8
2017-Feb-19 02:00N 50°36' W 096°54'0 0.0 020 / 41009.6 0.2 0.2
2017-Feb-19 01:00N 50°36' W 096°54'0 0.0 040 / 81008.5 1.1 1.0
2017-Feb-19 00:00N 50°36' W 096°54'0 0.0 270 / 31007.2 4.3-1.8
2017-Feb-18 23:00N 50°36' W 096°54'0 0.0 280 / 51006.3 5.5-1.7
2017-Feb-18 22:00N 50°36' W 096°54'0 0.0 280 / 61005.2 6.6-1.6
2017-Feb-18 21:00N 50°36' W 096°54'0 0.0 290 / 101004.4 6.4-1.8
2017-Feb-18 20:00N 50°36' W 096°54'0 0.0 280 / 81003.8 6.6-1.6
2017-Feb-18 19:00N 50°36' W 096°54'0 0.0 270 / 81003.4 6.4-1.4
2017-Feb-18 18:00N 50°36' W 096°54'0 0.0 270 / 101002.8 6.4-1.9
2017-Feb-18 17:00N 50°36' W 096°54'0 0.0 270 / 91002.3 6.1-0.9
2017-Feb-18 16:00N 50°36' W 096°54'0 0.0 260 / 81001.1 5.5 0.4
2017-Feb-18 15:00N 50°36' W 096°54'0 0.0 270 / 91000.6 4.3 1.3
2017-Feb-18 14:00N 50°36' W 096°54'0 0.0 260 / 101000.2 3.5 2.1
2017-Feb-18 13:00N 50°36' W 096°54'0 0.0 260 / 9999.8 3.0 2.0
2017-Feb-18 12:00N 50°36' W 096°54'0 0.0 260 / 8999.2 2.6 2.1
2017-Feb-18 11:00N 50°36' W 096°54'0 0.0 250 / 6998.5 2.0 1.9
2017-Feb-18 10:00N 50°36' W 096°54'0 0.0 220 / 6997.6 2.5 1.8
2017-Feb-18 09:00N 50°36' W 096°54'0 0.0 240 / 7997.0 2.7 1.8
2017-Feb-18 08:00N 50°36' W 096°54'0 0.0 230 / 8996.2 3.1 1.8
2017-Feb-18 07:00N 50°36' W 096°54'0 0.0 250 / 10994.8 4.1 2.2
2017-Feb-18 06:00N 50°36' W 096°54'0 0.0 240 / 10993.9 4.0 2.0
2017-Feb-18 05:00N 50°36' W 096°54'0 0.0 250 / 9993.1 4.4 1.9
2017-Feb-18 04:00N 50°36' W 096°54'0 0.0 240 / 7992.4 3.9 2.2
2017-Feb-18 03:00N 50°36' W 096°54'0 0.0 230 / 9992.0 3.6 2.1
2017-Feb-18 02:00N 50°36' W 096°54'0 0.0 240 / 9991.6 3.8 1.7
2017-Feb-18 01:00N 50°36' W 096°54'0 0.0 250 / 9990.8 4.6 1.4
2017-Feb-18 00:00N 50°36' W 096°54'0 0.0 230 / 6990.2 5.1 1.2
2017-Feb-17 23:00N 50°36' W 096°54'0 0.0 200 / 5989.6 5.1 1.2
2017-Feb-17 22:00N 50°36' W 096°54'0 0.0 190 / 8989.1 5.0 0.8
2017-Feb-17 21:00N 50°36' W 096°54'0 0.0 180 / 9988.9 4.2 0.4
2017-Feb-17 20:00N 50°36' W 096°54'0 0.0 210 / 8988.8 7.4 0.4
2017-Feb-17 19:00N 50°36' W 096°54'0 0.0 200 / 11989.4 5.2 0.1
2017-Feb-17 18:00N 50°36' W 096°54'0 0.0 180 / 14989.8 5.2-0.0
2017-Feb-17 17:00N 50°36' W 096°54'0 0.0 180 / 8990.7 3.4-0.1
2017-Feb-17 16:00N 50°36' W 096°54'0 0.0 190 / 8991.0 1.7-0.6
2017-Feb-17 15:00N 50°36' W 096°54'0 0.0 190 / 6990.8 0.9-0.3
2017-Feb-17 14:00N 50°36' W 096°54'0 0.0 180 / 9991.3 -0.9-1.1
2017-Feb-17 13:00N 50°36' W 096°54'0 0.0 180 / 9991.4 -1.7-1.8
2017-Feb-17 12:00N 50°36' W 096°54'0 0.0 190 / 7991.8 -2.3-2.3
2017-Feb-17 11:00N 50°36' W 096°54'0 0.0 190 / 10992.1 -2.1-2.1
2017-Feb-17 10:00N 50°36' W 096°54'0 0.0 160 / 9992.5 -4.6-4.4
2017-Feb-17 09:00N 50°36' W 096°54'0 0.0 170 / 8992.7 -4.7-4.5
2017-Feb-17 08:00N 50°36' W 096°54'0 0.0 150 / 7993.1 -4.5-4.4
2017-Feb-17 07:00N 50°36' W 096°54'0 0.0 160 / 8992.9 -3.4-3.4
2017-Feb-17 06:00N 50°36' W 096°54'0 0.0 180 / 7993.7 -0.2-0.2
2017-Feb-17 05:00N 50°36' W 096°54'0 0.0 180 / 5994.0 -0.4-0.4
2017-Feb-17 04:00N 50°36' W 096°54'0 0.0 170 / 7994.2 -1.4-1.3
2017-Feb-17 03:00N 50°36' W 096°54'0 0.0 160 / 6995.0 -0.0-0.0
2017-Feb-17 02:00N 50°36' W 096°54'0 0.0 170 / 6995.3 0.1 0.1
2017-Feb-17 01:00N 50°36' W 096°54'0 0.0 170 / 6995.6 0.1 0.1
2017-Feb-17 00:00N 50°36' W 096°54'0 0.0 160 / 10995.9 -0.9-0.9
2017-Feb-16 23:00N 50°36' W 096°54'0 0.0 170 / 8995.8 0.4 0.3
2017-Feb-16 22:00N 50°36' W 096°54'0 0.0 170 / 6996.0 0.7 0.6
2017-Feb-16 21:00N 50°36' W 096°54'0 0.0 160 / 10996.2 1.1 0.9
2017-Feb-16 20:00N 50°36' W 096°54'0 0.0 140 / 9995.8 1.0 0.9
2017-Feb-16 19:00N 50°36' W 096°54'0 0.0 150 / 11995.9 -0.1-0.2
2017-Feb-16 18:00N 50°36' W 096°54'0 0.0 150 / 10997.0 -1.9-2.2
2017-Feb-16 17:00N 50°36' W 096°54'0 0.0 130 / 11997.5 -2.9-3.4
2017-Feb-16 16:00N 50°36' W 096°54'0 0.0 150 / 11997.3 -4.2-5.1
2017-Feb-16 15:00N 50°36' W 096°54'0 0.0 150 / 12997.5 -5.7-7.3
2017-Feb-16 14:00N 50°36' W 096°54'0 0.0 150 / 8999.1 -7.4-9.1
2017-Feb-16 13:00N 50°36' W 096°54'0 0.0 150 / 16999.0 -6.8-9.3
2017-Feb-16 12:00N 50°36' W 096°54'0 0.0 120 / 16999.9 -6.2-8.7
2017-Feb-16 11:00N 50°36' W 096°54'0 0.0 160 / 81000.7 -6.7-9.2
2017-Feb-16 09:00N 50°36' W 096°54'0 0.0 140 / 161001.5 -6.6-10.3
2017-Feb-16 08:00N 50°36' W 096°54'0 0.0 140 / 141003.3 -6.6-10.3
2017-Feb-16 07:00N 50°36' W 096°54'0 0.0 140 / 141004.3 -6.6-10.6
2017-Feb-16 06:00N 50°36' W 096°54'0 0.0 130 / 151004.9 -5.9-10.0
2017-Feb-16 05:00N 50°36' W 096°54'0 0.0 140 / 81006.0 -6.4-10.8
2017-Feb-16 04:00N 50°36' W 096°54'0 0.0 130 / 111006.3 -6.5-10.3
2017-Feb-16 03:00N 50°36' W 096°54'0 0.0 120 / 121007.7 -6.3-10.2
2017-Feb-16 02:00N 50°36' W 096°54'0 0.0 120 / 111007.9 -6.7-10.7
2017-Feb-16 01:00N 50°36' W 096°54'0 0.0 120 / 101008.0 -5.5-9.4
2017-Feb-16 00:00N 50°36' W 096°54'0 0.0 150 / 71008.3 -5.6-9.9
2017-Feb-15 23:00N 50°36' W 096°54'0 0.0 150 / 101007.9 -4.5-9.3
2017-Feb-15 22:00N 50°36' W 096°54'0 0.0 150 / 91009.0 -3.9-9.2
2017-Feb-15 21:00N 50°36' W 096°54'0 0.0 130 / 121009.6 -3.2-9.5
2017-Feb-15 20:00N 50°36' W 096°54'0 0.0 140 / 141010.7 -5.1-11.4
2017-Feb-15 19:00N 50°36' W 096°54'0 0.0 130 / 131012.0 -6.3-11.9
2017-Feb-15 18:00N 50°36' W 096°54'0 0.0 120 / 141012.7 -8.5-12.9
2017-Feb-15 17:00N 50°36' W 096°54'0 0.0 150 / 161013.5 -10.8-14.9
2017-Feb-15 16:00N 50°36' W 096°54'0 0.0 130 / 161014.7 -11.8-15.3
2017-Feb-15 15:00N 50°36' W 096°54'0 0.0 130 / 91015.9 -13.1-16.4
2017-Feb-15 14:00N 50°36' W 096°54'0 0.0 170 / 121016.2 -14.7-17.5
2017-Feb-15 13:00N 50°36' W 096°54'0 0.0 140 / 91017.3 -14.6-17.4
2017-Feb-15 12:00N 50°36' W 096°54'0 0.0 120 / 91018.2 -14.2-16.7
2017-Feb-15 11:00N 50°36' W 096°54'0 0.0 140 / 71018.7 -14.0-16.8
2017-Feb-15 10:00N 50°36' W 096°54'0 0.0 180 / 51020.0 -14.0-16.8
2017-Feb-15 09:00N 50°36' W 096°54'0 0.0 180 / 41020.1 -15.0-17.6
2017-Feb-15 08:00N 50°36' W 096°54'0 0.0 170 / 41020.3 -14.4-17.5
2017-Feb-15 07:00N 50°36' W 096°54'0 0.0 130 / 31021.2 -13.0-16.6
2017-Feb-15 06:00N 50°36' W 096°54'0 0.0 040 / 21022.3 -12.4-17.1
2017-Feb-15 05:00N 50°36' W 096°54'0 0.0 020 / 11022.7 -12.3-17.2
2017-Feb-15 04:00N 50°36' W 096°54'0 0.0 330 / 31023.1 -12.3-17.5
2017-Feb-15 03:00N 50°36' W 096°54'0 0.0 300 / 41023.4 -12.1-17.2
2017-Feb-15 02:00N 50°36' W 096°54'0 0.0 280 / 31022.5 -11.3-16.9
2017-Feb-15 01:00N 50°36' W 096°54'0 0.0 340 / 61022.0 -10.4-16.6
2017-Feb-15 00:00N 50°36' W 096°54'0 0.0 320 / 61022.1 -9.5-16.3
2017-Feb-14 23:00N 50°36' W 096°54'0 0.0 320 / 91021.8 -7.3-15.2
2017-Feb-14 22:00N 50°36' W 096°54'0 0.0 340 / 91020.8 -6.8-14.4
2017-Feb-14 21:00N 50°36' W 096°54'0 0.0 330 / 101020.5 -6.3-14.2
2017-Feb-14 20:00N 50°36' W 096°54'0 0.0 340 / 121020.4 -6.6-14.1
2017-Feb-14 19:00N 50°36' W 096°54'0 0.0 330 / 161019.4 -7.1-14.0
2017-Feb-14 18:00N 50°36' W 096°54'0 0.0 340 / 161018.5 -7.0-13.3
2017-Feb-14 17:00N 50°36' W 096°54'0 0.0 350 / 201017.4 -7.0-12.0
2017-Feb-14 16:00N 50°36' W 096°54'0 0.0 340 / 171016.7 -5.9-12.4
2017-Feb-14 15:00N 50°36' W 096°54'0 0.0 330 / 141015.2 -5.3-13.8
2017-Feb-14 14:00N 50°36' W 096°54'0 0.0 340 / 171014.0 -5.1-14.4
2017-Feb-14 13:00N 50°36' W 096°54'0 0.0 320 / 141012.0 -2.4-14.5
2017-Feb-14 12:00N 50°36' W 096°54'0 0.0 320 / 161010.8 -1.0-14.1
2017-Feb-14 11:00N 50°36' W 096°54'0 0.0 300 / 81010.7 -0.6-6.9
2017-Feb-14 10:00N 50°36' W 096°54'0 0.0 300 / 121010.0 1.0-7.5
2017-Feb-14 09:00N 50°36' W 096°54'0 0.0 280 / 81010.1 -0.0-4.6
2017-Feb-14 08:00N 50°36' W 096°54'0 0.0 290 / 101009.7 1.6-4.8
2017-Feb-14 07:00N 50°36' W 096°54'0 0.0 270 / 81009.6 1.7-3.9
2017-Feb-14 06:00N 50°36' W 096°54'0 0.0 280 / 81009.0 1.9-3.7
2017-Feb-14 05:00N 50°36' W 096°54'0 0.0 290 / 101008.8 2.8-3.2
2017-Feb-14 04:00N 50°36' W 096°54'0 0.0 290 / 91008.8 3.1-3.0
2017-Feb-14 03:00N 50°36' W 096°54'0 0.0 270 / 71008.7 3.0-2.9
2017-Feb-14 02:00N 50°36' W 096°54'0 0.0 260 / 71008.7 3.2-2.9
2017-Feb-14 01:00N 50°36' W 096°54'0 0.0 270 / 71008.5 3.9-2.7
2017-Feb-14 00:00N 50°36' W 096°54'0 0.0 250 / 61008.1 4.3-2.8
2017-Feb-13 23:00N 50°36' W 096°54'0 0.0 280 / 91007.9 5.0-3.1
2017-Feb-13 22:00N 50°36' W 096°54'0 0.0 270 / 71007.7 4.8-3.8
2017-Feb-13 21:00N 50°36' W 096°54'0 0.0 270 / 101007.4 4.9-4.9
2017-Feb-13 20:00N 50°36' W 096°54'0 0.0 280 / 81007.3 4.3-5.1
2017-Feb-13 19:00N 50°36' W 096°54'0 0.0 280 / 81007.6 4.1-5.4
2017-Feb-13 18:00N 50°36' W 096°54'0 0.0 270 / 61008.2 1.4-5.6
2017-Feb-13 17:00N 50°36' W 096°54'0 0.0 260 / 71007.8 0.5-6.0
2017-Feb-13 16:00N 50°36' W 096°54'0 0.0 230 / 101008.2 -1.9-6.5
2017-Feb-13 15:00N 50°36' W 096°54'0 0.0 230 / 101008.3 -2.8-6.8
2017-Feb-13 14:00N 50°36' W 096°54'0 0.0 230 / 101009.2 -4.2-6.7
2017-Feb-13 13:00N 50°36' W 096°54'0 0.0 230 / 91009.2 -3.9-6.2
2017-Feb-13 12:00N 50°36' W 096°54'0 0.0 230 / 91010.0 -4.2-5.7
2017-Feb-13 11:00N 50°36' W 096°54'0 0.0 210 / 111010.3 -5.2-6.1
2017-Feb-13 10:00N 50°36' W 096°54'0 0.0 210 / 101010.7 -6.4-7.0
2017-Feb-13 09:00N 50°36' W 096°54'0 0.0 190 / 101012.1 -7.3-8.0
2017-Feb-13 08:00N 50°36' W 096°54'0 0.0 200 / 71013.0 -7.1-8.3
2017-Feb-13 07:00N 50°36' W 096°54'0 0.0 190 / 121013.8 -6.9-8.8
2017-Feb-13 06:00N 50°36' W 096°54'0 0.0 180 / 111014.8 -5.6-8.6
2017-Feb-13 05:00N 50°36' W 096°54'0 0.0 210 / 101015.8 -3.3-8.2
2017-Feb-13 04:00N 50°36' W 096°54'0 0.0 220 / 111016.3 -2.8-8.8
2017-Feb-13 03:00N 50°36' W 096°54'0 0.0 210 / 101016.9 -2.3-8.8
2017-Feb-13 02:00N 50°36' W 096°54'0 0.0 230 / 91017.5 -1.7-8.6
2017-Feb-13 01:00N 50°36' W 096°54'0 0.0 230 / 101018.1 -1.7-8.8
2017-Feb-13 00:00N 50°36' W 096°54'0 0.0 230 / 101018.7 -1.5-8.2
2017-Feb-12 23:00N 50°36' W 096°54'0 0.0 230 / 101018.9 -0.0-8.1
2017-Feb-12 22:00N 50°36' W 096°54'0 0.0 220 / 91019.4 0.4-8.1
2017-Feb-12 21:00N 50°36' W 096°54'0 0.0 230 / 111019.8 1.0-9.1
2017-Feb-12 20:00N 50°36' W 096°54'0 0.0 220 / 91020.0 -0.5-9.4
2017-Feb-12 19:00N 50°36' W 096°54'0 0.0 230 / 91020.6 -0.9-9.8
2017-Feb-12 18:00N 50°36' W 096°54'0 0.0 240 / 71020.8 -1.9-10.2
2017-Feb-12 17:00N 50°36' W 096°54'0 0.0 250 / 91020.7 -3.8-10.7
2017-Feb-12 16:00N 50°36' W 096°54'   250 / 91020.6 -6.2-11.4

Dump ship's entire track history